WMT224 LHBP-LIPZ
Flight info
| Callsign | WMT224 |
|---|---|
| Flight time | 1h 14m |
| Altitude | 36000 |
| Route | GILEP DCT ZOLKU DCT SUBES DCT SUNIS DCT RADLY DCT UPETA DCT RIFEN/N0441F370 DCT BADOP/N0345F190 P125 TULIK Z71 BASOG |
| Aircraft | A21N/M-SDE1E2E3FGIJ1J4RWXY/LB1 |
Departure
| Time | 2026-05-06 16:10 |
|---|---|
| Airport | Budapest Liszt Ferenc International Airport (LHBP) |
Arrival
| Time | 2026-05-06 17:24 |
|---|---|
| Airport | Venice Marco Polo Airport (LIPZ) |
| Time | Latitude | Longitude | Altitude | Speed | Heading |
|---|---|---|---|---|---|
| 2026-05-06 15:20 | 47.43565 | 19.26393 | 463 ft | 0 kts | 222° |
| 2026-05-06 15:59 | 47.43567 | 19.26395 | 463 ft | 2 kts | 222° |
| 2026-05-06 15:59 | 47.43583 | 19.26418 | 461 ft | 4 kts | 230° |
| 2026-05-06 15:59 | 47.43592 | 19.26449 | 463 ft | 4 kts | 279° |
| 2026-05-06 15:59 | 47.43582 | 19.26483 | 461 ft | 4 kts | 307° |
| 2026-05-06 16:00 | 47.43564 | 19.26514 | 463 ft | 4 kts | 313° |
| 2026-05-06 16:00 | 47.43560 | 19.26520 | 463 ft | 0 kts | 312° |
| 2026-05-06 16:04 | 47.43565 | 19.26512 | 463 ft | 3 kts | 312° |
| 2026-05-06 16:04 | 47.43591 | 19.26471 | 460 ft | 7 kts | 313° |
| 2026-05-06 16:04 | 47.43628 | 19.26411 | 463 ft | 9 kts | 313° |
| 2026-05-06 16:04 | 47.43668 | 19.26355 | 461 ft | 7 kts | 334° |
| 2026-05-06 16:05 | 47.43721 | 19.26377 | 460 ft | 10 kts | 43° |
| 2026-05-06 16:05 | 47.43783 | 19.26422 | 463 ft | 12 kts | 339° |
| 2026-05-06 16:05 | 47.43843 | 19.26328 | 463 ft | 14 kts | 311° |
| 2026-05-06 16:05 | 47.43902 | 19.26235 | 463 ft | 11 kts | 313° |
| 2026-05-06 16:06 | 47.43968 | 19.26221 | 462 ft | 9 kts | 40° |
| 2026-05-06 16:06 | 47.43989 | 19.26250 | 463 ft | 0 kts | 43° |
| 2026-05-06 16:07 | 47.43993 | 19.26255 | 465 ft | 3 kts | 43° |
| 2026-05-06 16:08 | 47.44025 | 19.26301 | 464 ft | 9 kts | 46° |
| 2026-05-06 16:08 | 47.44064 | 19.26397 | 470 ft | 13 kts | 72° |
| 2026-05-06 16:08 | 47.44073 | 19.26509 | 476 ft | 10 kts | 110° |
| 2026-05-06 16:08 | 47.44055 | 19.26548 | 475 ft | 0 kts | 131° |
| 2026-05-06 16:09 | 47.43936 | 19.26740 | 476 ft | 60 kts | 134° |
| 2026-05-06 16:09 | 47.43491 | 19.27458 | 474 ft | 126 kts | 133° |
| 2026-05-06 16:09 | 47.42780 | 19.28600 | 496 ft | 167 kts | 132° |
| 2026-05-06 16:09 | 47.42023 | 19.29838 | 1060 ft | 164 kts | 133° |
| 2026-05-06 16:10 | 47.41472 | 19.31295 | 1617 ft | 168 kts | 112° |
| 2026-05-06 16:10 | 47.40939 | 19.32896 | 2036 ft | 182 kts | 121° |
| 2026-05-06 16:10 | 47.40277 | 19.34604 | 2516 ft | 197 kts | 122° |
| 2026-05-06 16:10 | 47.39591 | 19.36403 | 3105 ft | 210 kts | 121° |
| 2026-05-06 16:11 | 47.38845 | 19.38367 | 3624 ft | 230 kts | 121° |
| 2026-05-06 16:11 | 47.37908 | 19.40404 | 4113 ft | 250 kts | 137° |
| 2026-05-06 16:11 | 47.36390 | 19.41750 | 4708 ft | 262 kts | 165° |
| 2026-05-06 16:11 | 47.34577 | 19.41891 | 5518 ft | 265 kts | 192° |
| 2026-05-06 16:12 | 47.32908 | 19.40761 | 6376 ft | 267 kts | 219° |
| 2026-05-06 16:12 | 47.31753 | 19.38618 | 7227 ft | 271 kts | 241° |
| 2026-05-06 16:12 | 47.30921 | 19.36100 | 8069 ft | 275 kts | 244° |
| 2026-05-06 16:12 | 47.30096 | 19.33530 | 8893 ft | 279 kts | 243° |
| 2026-05-06 16:13 | 47.29239 | 19.30943 | 9713 ft | 282 kts | 243° |
| 2026-05-06 16:13 | 47.28354 | 19.28329 | 10365 ft | 293 kts | 242° |
| 2026-05-06 16:13 | 47.27406 | 19.25570 | 10752 ft | 311 kts | 242° |
| 2026-05-06 16:13 | 47.26403 | 19.22673 | 11237 ft | 323 kts | 242° |
| 2026-05-06 16:14 | 47.25370 | 19.19703 | 11943 ft | 328 kts | 242° |
| 2026-05-06 16:14 | 47.24321 | 19.16699 | 12713 ft | 331 kts | 242° |
| 2026-05-06 16:14 | 47.23264 | 19.13676 | 13474 ft | 334 kts | 242° |
| 2026-05-06 16:14 | 47.22192 | 19.10616 | 14199 ft | 338 kts | 242° |
| 2026-05-06 16:15 | 47.21114 | 19.07528 | 14904 ft | 341 kts | 243° |
| 2026-05-06 16:15 | 47.20338 | 19.04212 | 15573 ft | 346 kts | 259° |
| 2026-05-06 16:15 | 47.20354 | 19.00665 | 16226 ft | 352 kts | 280° |
| 2026-05-06 16:15 | 47.21240 | 18.97296 | 16869 ft | 358 kts | 300° |
| 2026-05-06 16:16 | 47.22737 | 18.94348 | 17525 ft | 362 kts | 308° |
| 2026-05-06 16:16 | 47.24349 | 18.91469 | 18155 ft | 366 kts | 308° |
| 2026-05-06 16:16 | 47.25962 | 18.88552 | 18776 ft | 369 kts | 307° |
| 2026-05-06 16:16 | 47.27571 | 18.85588 | 19384 ft | 372 kts | 307° |
| 2026-05-06 16:17 | 47.29161 | 18.82620 | 19981 ft | 375 kts | 307° |
| 2026-05-06 16:17 | 47.30800 | 18.79542 | 20570 ft | 379 kts | 307° |
| 2026-05-06 16:17 | 47.32407 | 18.76512 | 21105 ft | 382 kts | 307° |
| 2026-05-06 16:17 | 47.34045 | 18.73420 | 21645 ft | 385 kts | 306° |
| 2026-05-06 16:18 | 47.35695 | 18.70299 | 22173 ft | 387 kts | 306° |
| 2026-05-06 16:18 | 47.37360 | 18.67147 | 22696 ft | 390 kts | 306° |
| 2026-05-06 16:18 | 47.39037 | 18.63975 | 23201 ft | 393 kts | 306° |
| 2026-05-06 16:18 | 47.40694 | 18.60753 | 23690 ft | 395 kts | 303° |
| 2026-05-06 16:19 | 47.41978 | 18.57173 | 24159 ft | 395 kts | 289° |
| 2026-05-06 16:19 | 47.42828 | 18.53306 | 24627 ft | 397 kts | 285° |
| 2026-05-06 16:19 | 47.43603 | 18.49381 | 25085 ft | 400 kts | 285° |
| 2026-05-06 16:19 | 47.44384 | 18.45435 | 25547 ft | 401 kts | 285° |
| 2026-05-06 16:20 | 47.45180 | 18.41478 | 25982 ft | 404 kts | 285° |
| 2026-05-06 16:20 | 47.45986 | 18.37487 | 26405 ft | 406 kts | 285° |
| 2026-05-06 16:20 | 47.46793 | 18.33487 | 26832 ft | 408 kts | 285° |
| 2026-05-06 16:20 | 47.47606 | 18.29463 | 27248 ft | 409 kts | 285° |
| 2026-05-06 16:21 | 47.48144 | 18.26786 | 27509 ft | 410 kts | 285° |
| 2026-05-06 16:21 | 47.48860 | 18.22694 | 27892 ft | 412 kts | 283° |
| 2026-05-06 16:21 | 47.49538 | 18.18576 | 28266 ft | 414 kts | 282° |
| 2026-05-06 16:21 | 47.50218 | 18.14434 | 28640 ft | 415 kts | 282° |
| 2026-05-06 16:22 | 47.50902 | 18.10276 | 28994 ft | 417 kts | 282° |
| 2026-05-06 16:22 | 47.51590 | 18.06095 | 29342 ft | 419 kts | 282° |
| 2026-05-06 16:22 | 47.52279 | 18.01905 | 29674 ft | 420 kts | 282° |
| 2026-05-06 16:22 | 47.52965 | 17.97705 | 29991 ft | 422 kts | 282° |
| 2026-05-06 16:23 | 47.53655 | 17.93471 | 30293 ft | 424 kts | 282° |
| 2026-05-06 16:23 | 47.54342 | 17.89231 | 30591 ft | 425 kts | 282° |
| 2026-05-06 16:23 | 47.54800 | 17.84919 | 30891 ft | 425 kts | 273° |
| 2026-05-06 16:23 | 47.54705 | 17.80551 | 31162 ft | 426 kts | 262° |
| 2026-05-06 16:24 | 47.54013 | 17.76297 | 31427 ft | 427 kts | 250° |
| 2026-05-06 16:24 | 47.52782 | 17.72294 | 31690 ft | 428 kts | 243° |
| 2026-05-06 16:24 | 47.51374 | 17.68424 | 32038 ft | 427 kts | 242° |
| 2026-05-06 16:24 | 47.49957 | 17.64563 | 32390 ft | 426 kts | 242° |
| 2026-05-06 16:25 | 47.48558 | 17.60714 | 32723 ft | 424 kts | 243° |
| 2026-05-06 16:25 | 47.47176 | 17.56873 | 33059 ft | 423 kts | 243° |
| 2026-05-06 16:25 | 47.45820 | 17.53089 | 33361 ft | 422 kts | 243° |
| 2026-05-06 16:25 | 47.44449 | 17.49261 | 33654 ft | 421 kts | 243° |
| 2026-05-06 16:26 | 47.43084 | 17.45455 | 33954 ft | 419 kts | 243° |
| 2026-05-06 16:26 | 47.41816 | 17.41590 | 34211 ft | 418 kts | 248° |
| 2026-05-06 16:26 | 47.40771 | 17.37587 | 34447 ft | 417 kts | 250° |
| 2026-05-06 16:26 | 47.39762 | 17.33578 | 34689 ft | 416 kts | 250° |
| 2026-05-06 16:27 | 47.38757 | 17.29567 | 34896 ft | 416 kts | 250° |
| 2026-05-06 16:27 | 47.37747 | 17.25568 | 35105 ft | 416 kts | 249° |
| 2026-05-06 16:27 | 47.36732 | 17.21578 | 35313 ft | 416 kts | 249° |
| 2026-05-06 16:27 | 47.35709 | 17.17586 | 35507 ft | 416 kts | 249° |
| 2026-05-06 16:28 | 47.34686 | 17.13608 | 35705 ft | 415 kts | 249° |
| 2026-05-06 16:28 | 47.33664 | 17.09630 | 35847 ft | 416 kts | 249° |
| 2026-05-06 16:28 | 47.31602 | 17.01614 | 35853 ft | 418 kts | 249° |
| 2026-05-06 16:29 | 47.29538 | 16.93600 | 35843 ft | 419 kts | 249° |
| 2026-05-06 16:29 | 47.27465 | 16.85589 | 35843 ft | 419 kts | 249° |
| 2026-05-06 16:30 | 47.25739 | 16.78932 | 35839 ft | 418 kts | 249° |
| 2026-05-06 16:30 | 47.23304 | 16.69600 | 35844 ft | 418 kts | 249° |
| 2026-05-06 16:31 | 47.21208 | 16.61603 | 36057 ft | 419 kts | 249° |
| 2026-05-06 16:31 | 47.20161 | 16.57611 | 36212 ft | 419 kts | 248° |
| 2026-05-06 16:31 | 47.19110 | 16.53615 | 36349 ft | 419 kts | 248° |
| 2026-05-06 16:32 | 47.18059 | 16.49626 | 36490 ft | 419 kts | 248° |
| 2026-05-06 16:32 | 47.17005 | 16.45632 | 36635 ft | 419 kts | 248° |
| 2026-05-06 16:32 | 47.15949 | 16.41638 | 36775 ft | 419 kts | 248° |
| 2026-05-06 16:32 | 47.14892 | 16.37649 | 36869 ft | 419 kts | 248° |
| 2026-05-06 16:33 | 47.12171 | 16.30129 | 36858 ft | 417 kts | 238° |
| 2026-05-06 16:34 | 47.07533 | 16.19369 | 36841 ft | 415 kts | 238° |
| 2026-05-06 16:34 | 47.04461 | 16.12205 | 36838 ft | 414 kts | 238° |
| 2026-05-06 16:35 | 47.01403 | 16.05078 | 36839 ft | 413 kts | 238° |
| 2026-05-06 16:35 | 46.98347 | 15.97973 | 36841 ft | 412 kts | 238° |
| 2026-05-06 16:36 | 46.95293 | 15.90895 | 36853 ft | 411 kts | 237° |
| 2026-05-06 16:36 | 46.92242 | 15.83838 | 36852 ft | 411 kts | 237° |
| 2026-05-06 16:37 | 46.89175 | 15.76764 | 36852 ft | 411 kts | 237° |
| 2026-05-06 16:37 | 46.86106 | 15.69710 | 36852 ft | 411 kts | 237° |
| 2026-05-06 16:38 | 46.83033 | 15.62658 | 36851 ft | 411 kts | 237° |
| 2026-05-06 16:38 | 46.79958 | 15.55623 | 36850 ft | 411 kts | 237° |
| 2026-05-06 16:39 | 46.76896 | 15.48632 | 36862 ft | 411 kts | 237° |
| 2026-05-06 16:39 | 46.73807 | 15.41600 | 36862 ft | 412 kts | 237° |
| 2026-05-06 16:40 | 46.70692 | 15.34530 | 36862 ft | 412 kts | 237° |
| 2026-05-06 16:40 | 46.67614 | 15.27556 | 36866 ft | 412 kts | 237° |
| 2026-05-06 16:41 | 46.64481 | 15.20575 | 36861 ft | 412 kts | 234° |
| 2026-05-06 16:41 | 46.61030 | 15.13925 | 36865 ft | 412 kts | 232° |
| 2026-05-06 16:42 | 46.57549 | 15.07307 | 36861 ft | 413 kts | 232° |
| 2026-05-06 16:42 | 46.54061 | 15.00680 | 36868 ft | 413 kts | 232° |
| 2026-05-06 16:43 | 46.50571 | 14.94053 | 36871 ft | 413 kts | 232° |
| 2026-05-06 16:43 | 46.47081 | 14.87446 | 36873 ft | 413 kts | 232° |
| 2026-05-06 16:44 | 46.43579 | 14.80832 | 36877 ft | 414 kts | 232° |
| 2026-05-06 16:44 | 46.40070 | 14.74222 | 36875 ft | 414 kts | 232° |
| 2026-05-06 16:45 | 46.36551 | 14.67606 | 36884 ft | 416 kts | 232° |
| 2026-05-06 16:45 | 46.33025 | 14.60993 | 36886 ft | 414 kts | 232° |
| 2026-05-06 16:46 | 46.29500 | 14.54399 | 36894 ft | 415 kts | 232° |
| 2026-05-06 16:46 | 46.25963 | 14.47798 | 36896 ft | 415 kts | 232° |
| 2026-05-06 16:47 | 46.22418 | 14.41196 | 36901 ft | 416 kts | 232° |
| 2026-05-06 16:47 | 46.18893 | 14.34649 | 36898 ft | 416 kts | 232° |
| 2026-05-06 16:48 | 46.15347 | 14.28075 | 36902 ft | 414 kts | 232° |
| 2026-05-06 16:48 | 46.11802 | 14.21523 | 36902 ft | 414 kts | 232° |
| 2026-05-06 16:49 | 46.08269 | 14.15010 | 36564 ft | 410 kts | 232° |
| 2026-05-06 16:49 | 46.06518 | 14.11784 | 36298 ft | 408 kts | 232° |
| 2026-05-06 16:49 | 46.04899 | 14.08448 | 36032 ft | 406 kts | 238° |
| 2026-05-06 16:49 | 46.03478 | 14.04945 | 35788 ft | 404 kts | 240° |
| 2026-05-06 16:50 | 46.02097 | 14.01436 | 35526 ft | 403 kts | 240° |
| 2026-05-06 16:50 | 46.00716 | 13.97928 | 35271 ft | 402 kts | 239° |
| 2026-05-06 16:50 | 45.99337 | 13.94450 | 35021 ft | 400 kts | 239° |
| 2026-05-06 16:50 | 45.97954 | 13.90975 | 34768 ft | 399 kts | 239° |
| 2026-05-06 16:51 | 45.96578 | 13.87527 | 34513 ft | 397 kts | 239° |
| 2026-05-06 16:51 | 45.95203 | 13.84090 | 34258 ft | 396 kts | 239° |
| 2026-05-06 16:51 | 45.93832 | 13.80669 | 34006 ft | 394 kts | 239° |
| 2026-05-06 16:51 | 45.92466 | 13.77263 | 33749 ft | 393 kts | 239° |
| 2026-05-06 16:52 | 45.91107 | 13.73879 | 33385 ft | 389 kts | 239° |
| 2026-05-06 16:52 | 45.89766 | 13.70540 | 32949 ft | 385 kts | 239° |
| 2026-05-06 16:52 | 45.88430 | 13.67222 | 32482 ft | 382 kts | 239° |
| 2026-05-06 16:52 | 45.87110 | 13.63944 | 31979 ft | 379 kts | 239° |
| 2026-05-06 16:53 | 45.85787 | 13.60685 | 31479 ft | 376 kts | 238° |
| 2026-05-06 16:53 | 45.84259 | 13.57663 | 30974 ft | 374 kts | 229° |
| 2026-05-06 16:53 | 45.82504 | 13.54923 | 30492 ft | 371 kts | 226° |
| 2026-05-06 16:53 | 45.80727 | 13.52258 | 30035 ft | 368 kts | 226° |
| 2026-05-06 16:54 | 45.78965 | 13.49619 | 29551 ft | 366 kts | 226° |
| 2026-05-06 16:54 | 45.77218 | 13.46988 | 29067 ft | 363 kts | 226° |
| 2026-05-06 16:54 | 45.75486 | 13.44372 | 28585 ft | 361 kts | 226° |
| 2026-05-06 16:54 | 45.73761 | 13.41767 | 28116 ft | 359 kts | 226° |
| 2026-05-06 16:55 | 45.72054 | 13.39187 | 27665 ft | 356 kts | 226° |
| 2026-05-06 16:55 | 45.70357 | 13.36624 | 27213 ft | 353 kts | 226° |
| 2026-05-06 16:55 | 45.68673 | 13.34082 | 26752 ft | 351 kts | 226° |
| 2026-05-06 16:55 | 45.66995 | 13.31553 | 26285 ft | 349 kts | 226° |
| 2026-05-06 16:56 | 45.65330 | 13.29045 | 25829 ft | 347 kts | 226° |
| 2026-05-06 16:56 | 45.63668 | 13.26545 | 25378 ft | 345 kts | 226° |
| 2026-05-06 16:56 | 45.62034 | 13.24088 | 24956 ft | 342 kts | 226° |
| 2026-05-06 16:56 | 45.60401 | 13.21635 | 24513 ft | 340 kts | 226° |
| 2026-05-06 16:57 | 45.58770 | 13.19189 | 24047 ft | 338 kts | 226° |
| 2026-05-06 16:57 | 45.57155 | 13.16769 | 23601 ft | 336 kts | 226° |
| 2026-05-06 16:57 | 45.55545 | 13.14358 | 23161 ft | 334 kts | 226° |
| 2026-05-06 16:57 | 45.53949 | 13.11969 | 22740 ft | 331 kts | 226° |
| 2026-05-06 16:58 | 45.52363 | 13.09595 | 22300 ft | 330 kts | 226° |
| 2026-05-06 16:58 | 45.50785 | 13.07236 | 21851 ft | 328 kts | 226° |
| 2026-05-06 16:58 | 45.49218 | 13.04898 | 21401 ft | 326 kts | 226° |
| 2026-05-06 16:58 | 45.47752 | 13.02436 | 21040 ft | 326 kts | 237° |
| 2026-05-06 16:59 | 45.46718 | 12.99559 | 20731 ft | 325 kts | 245° |
| 2026-05-06 16:59 | 45.45831 | 12.96626 | 20357 ft | 320 kts | 246° |
| 2026-05-06 16:59 | 45.44962 | 12.93739 | 19969 ft | 315 kts | 245° |
| 2026-05-06 16:59 | 45.44096 | 12.90903 | 19578 ft | 310 kts | 245° |
| 2026-05-06 17:00 | 45.43232 | 12.88111 | 19189 ft | 306 kts | 245° |
| 2026-05-06 17:00 | 45.42374 | 12.85354 | 18800 ft | 302 kts | 245° |
| 2026-05-06 17:00 | 45.41538 | 12.82676 | 18422 ft | 298 kts | 244° |
| 2026-05-06 17:00 | 45.40692 | 12.79975 | 18061 ft | 292 kts | 244° |
| 2026-05-06 17:01 | 45.39872 | 12.77357 | 17715 ft | 288 kts | 244° |
| 2026-05-06 17:01 | 45.39067 | 12.74791 | 17367 ft | 287 kts | 244° |
| 2026-05-06 17:01 | 45.38253 | 12.72204 | 17012 ft | 286 kts | 244° |
| 2026-05-06 17:01 | 45.37443 | 12.69634 | 16665 ft | 283 kts | 244° |
| 2026-05-06 17:02 | 45.36639 | 12.67085 | 16327 ft | 282 kts | 244° |
| 2026-05-06 17:02 | 45.35836 | 12.64543 | 16006 ft | 281 kts | 244° |
| 2026-05-06 17:02 | 45.35038 | 12.62014 | 15693 ft | 279 kts | 244° |
| 2026-05-06 17:02 | 45.34244 | 12.59498 | 15368 ft | 279 kts | 244° |
| 2026-05-06 17:03 | 45.33449 | 12.56988 | 15052 ft | 278 kts | 244° |
| 2026-05-06 17:03 | 45.32662 | 12.54501 | 14724 ft | 275 kts | 244° |
| 2026-05-06 17:03 | 45.31876 | 12.52023 | 14386 ft | 275 kts | 244° |
| 2026-05-06 17:03 | 45.31093 | 12.49554 | 14051 ft | 273 kts | 244° |
| 2026-05-06 17:04 | 45.30315 | 12.47102 | 13730 ft | 272 kts | 244° |
| 2026-05-06 17:04 | 45.29538 | 12.44660 | 13402 ft | 271 kts | 244° |
| 2026-05-06 17:04 | 45.28764 | 12.42229 | 13072 ft | 270 kts | 244° |
| 2026-05-06 17:04 | 45.27993 | 12.39808 | 12755 ft | 268 kts | 244° |
| 2026-05-06 17:05 | 45.27225 | 12.37395 | 12429 ft | 267 kts | 244° |
| 2026-05-06 17:05 | 45.26462 | 12.35004 | 12089 ft | 266 kts | 244° |
| 2026-05-06 17:05 | 45.25679 | 12.32558 | 11781 ft | 283 kts | 244° |
| 2026-05-06 17:05 | 45.24863 | 12.30009 | 11517 ft | 284 kts | 244° |
| 2026-05-06 17:06 | 45.24062 | 12.27499 | 11252 ft | 274 kts | 244° |
| 2026-05-06 17:06 | 45.23286 | 12.25075 | 10983 ft | 265 kts | 244° |
| 2026-05-06 17:06 | 45.22538 | 12.22737 | 10743 ft | 259 kts | 244° |
| 2026-05-06 17:06 | 45.21795 | 12.20411 | 10529 ft | 258 kts | 244° |
| 2026-05-06 17:07 | 45.21051 | 12.18095 | 10354 ft | 258 kts | 244° |
| 2026-05-06 17:07 | 45.20280 | 12.15706 | 10170 ft | 281 kts | 244° |
| 2026-05-06 17:07 | 45.19455 | 12.13147 | 9916 ft | 282 kts | 244° |
| 2026-05-06 17:07 | 45.18621 | 12.10704 | 9718 ft | 269 kts | 238° |
| 2026-05-06 17:08 | 45.17435 | 12.08749 | 9500 ft | 257 kts | 223° |
| 2026-05-06 17:08 | 45.16100 | 12.07081 | 9074 ft | 255 kts | 221° |
| 2026-05-06 17:08 | 45.15214 | 12.05991 | 8763 ft | 255 kts | 221° |
| 2026-05-06 17:08 | 45.13874 | 12.04333 | 8343 ft | 254 kts | 221° |
| 2026-05-06 17:09 | 45.12577 | 12.02719 | 8121 ft | 243 kts | 221° |
| 2026-05-06 17:09 | 45.11332 | 12.01166 | 7875 ft | 236 kts | 221° |
| 2026-05-06 17:09 | 45.10101 | 11.99622 | 7677 ft | 236 kts | 221° |
| 2026-05-06 17:09 | 45.08876 | 11.98085 | 7507 ft | 235 kts | 221° |
| 2026-05-06 17:10 | 45.07657 | 11.96551 | 7359 ft | 235 kts | 221° |
| 2026-05-06 17:10 | 45.06437 | 11.95017 | 7197 ft | 234 kts | 221° |
| 2026-05-06 17:10 | 45.05214 | 11.93481 | 7041 ft | 236 kts | 221° |
| 2026-05-06 17:10 | 45.03992 | 11.91947 | 6874 ft | 233 kts | 221° |
| 2026-05-06 17:11 | 45.02782 | 11.90430 | 6717 ft | 232 kts | 221° |
| 2026-05-06 17:11 | 45.01633 | 11.88836 | 6663 ft | 232 kts | 233° |
| 2026-05-06 17:11 | 45.01014 | 11.86744 | 6633 ft | 235 kts | 263° |
| 2026-05-06 17:11 | 45.01273 | 11.84483 | 6538 ft | 236 kts | 294° |
| 2026-05-06 17:12 | 45.02218 | 11.82659 | 6386 ft | 225 kts | 311° |
| 2026-05-06 17:12 | 45.03289 | 11.81103 | 6162 ft | 218 kts | 313° |
| 2026-05-06 17:12 | 45.04516 | 11.79835 | 5985 ft | 221 kts | 336° |
| 2026-05-06 17:12 | 45.06028 | 11.79497 | 5838 ft | 224 kts | 7° |
| 2026-05-06 17:13 | 45.07505 | 11.80119 | 5719 ft | 225 kts | 21° |
| 2026-05-06 17:13 | 45.08968 | 11.80989 | 5603 ft | 225 kts | 22° |
| 2026-05-06 17:13 | 45.10412 | 11.81854 | 5487 ft | 224 kts | 25° |
| 2026-05-06 17:13 | 45.11629 | 11.83172 | 5149 ft | 221 kts | 47° |
| 2026-05-06 17:14 | 45.12649 | 11.84760 | 4803 ft | 221 kts | 48° |
| 2026-05-06 17:14 | 45.13695 | 11.86349 | 4609 ft | 220 kts | 47° |
| 2026-05-06 17:14 | 45.14773 | 11.87927 | 4620 ft | 220 kts | 46° |
| 2026-05-06 17:14 | 45.15843 | 11.89447 | 4671 ft | 221 kts | 45° |
| 2026-05-06 17:15 | 45.16936 | 11.90974 | 4621 ft | 220 kts | 45° |
| 2026-05-06 17:15 | 45.18026 | 11.92498 | 4658 ft | 220 kts | 45° |
| 2026-05-06 17:15 | 45.19120 | 11.94021 | 4626 ft | 220 kts | 45° |
| 2026-05-06 17:15 | 45.20213 | 11.95546 | 4653 ft | 220 kts | 45° |
| 2026-05-06 17:16 | 45.21304 | 11.97069 | 4638 ft | 220 kts | 45° |
| 2026-05-06 17:16 | 45.22395 | 11.98595 | 4633 ft | 220 kts | 45° |
| 2026-05-06 17:16 | 45.23480 | 12.00121 | 4653 ft | 220 kts | 45° |
| 2026-05-06 17:16 | 45.24571 | 12.01660 | 4620 ft | 221 kts | 45° |
| 2026-05-06 17:17 | 45.25657 | 12.03196 | 4661 ft | 221 kts | 45° |
| 2026-05-06 17:17 | 45.26758 | 12.04723 | 4619 ft | 221 kts | 44° |
| 2026-05-06 17:17 | 45.27892 | 12.06198 | 4564 ft | 220 kts | 43° |
| 2026-05-06 17:17 | 45.29025 | 12.07651 | 4316 ft | 220 kts | 42° |
| 2026-05-06 17:18 | 45.30157 | 12.09098 | 4025 ft | 217 kts | 43° |
| 2026-05-06 17:18 | 45.31280 | 12.10532 | 3726 ft | 216 kts | 43° |
| 2026-05-06 17:18 | 45.32397 | 12.11959 | 3412 ft | 215 kts | 43° |
| 2026-05-06 17:18 | 45.33503 | 12.13375 | 3112 ft | 214 kts | 43° |
| 2026-05-06 17:19 | 45.34605 | 12.14784 | 2978 ft | 213 kts | 43° |
| 2026-05-06 17:19 | 45.35704 | 12.16191 | 2971 ft | 213 kts | 43° |
| 2026-05-06 17:19 | 45.36803 | 12.17598 | 2983 ft | 213 kts | 43° |
| 2026-05-06 17:19 | 45.37904 | 12.19008 | 2954 ft | 213 kts | 43° |
| 2026-05-06 17:20 | 45.38973 | 12.20379 | 2819 ft | 199 kts | 43° |
| 2026-05-06 17:20 | 45.39983 | 12.21673 | 2572 ft | 192 kts | 43° |
| 2026-05-06 17:20 | 45.40954 | 12.22918 | 2308 ft | 187 kts | 43° |
| 2026-05-06 17:20 | 45.41907 | 12.24141 | 2067 ft | 179 kts | 43° |
| 2026-05-06 17:21 | 45.42815 | 12.25305 | 1808 ft | 172 kts | 43° |
| 2026-05-06 17:21 | 45.43675 | 12.26411 | 1578 ft | 157 kts | 43° |
| 2026-05-06 17:21 | 45.44429 | 12.27380 | 1338 ft | 139 kts | 43° |
| 2026-05-06 17:21 | 45.45142 | 12.28297 | 1145 ft | 138 kts | 43° |
| 2026-05-06 17:22 | 45.45853 | 12.29210 | 968 ft | 137 kts | 43° |
| 2026-05-06 17:22 | 45.46561 | 12.30117 | 793 ft | 137 kts | 42° |
| 2026-05-06 17:22 | 45.47272 | 12.31013 | 627 ft | 136 kts | 42° |
| 2026-05-06 17:22 | 45.47978 | 12.31918 | 447 ft | 136 kts | 43° |
| 2026-05-06 17:23 | 45.48675 | 12.32826 | 264 ft | 136 kts | 43° |
| 2026-05-06 17:23 | 45.49377 | 12.33728 | 89 ft | 136 kts | 43° |
| 2026-05-06 17:23 | 45.50059 | 12.34606 | 20 ft | 122 kts | 42° |
| 2026-05-06 17:23 | 45.50541 | 12.35223 | 20 ft | 64 kts | 42° |
| 2026-05-06 17:24 | 45.50780 | 12.35429 | 21 ft | 33 kts | 9° |
| 2026-05-06 17:24 | 45.50920 | 12.35430 | 22 ft | 13 kts | 313° |
| 2026-05-06 17:24 | 45.50890 | 12.35315 | 22 ft | 13 kts | 219° |
| 2026-05-06 17:24 | 45.50837 | 12.35254 | 23 ft | 11 kts | 219° |
| 2026-05-06 17:25 | 45.50775 | 12.35177 | 21 ft | 13 kts | 223° |
| 2026-05-06 17:25 | 45.50707 | 12.35088 | 20 ft | 14 kts | 223° |
| 2026-05-06 17:25 | 45.50630 | 12.34987 | 21 ft | 16 kts | 227° |
| 2026-05-06 17:25 | 45.50609 | 12.34825 | 21 ft | 18 kts | 268° |
| 2026-05-06 17:26 | 45.50556 | 12.34692 | 21 ft | 17 kts | 218° |
| 2026-05-06 17:26 | 45.50468 | 12.34578 | 21 ft | 16 kts | 222° |
| 2026-05-06 17:26 | 45.50384 | 12.34469 | 24 ft | 18 kts | 222° |
| 2026-05-06 17:26 | 45.50310 | 12.34374 | 22 ft | 14 kts | 221° |
| 2026-05-06 17:27 | 45.50247 | 12.34294 | 21 ft | 11 kts | 222° |
| 2026-05-06 17:27 | 45.50198 | 12.34231 | 21 ft | 7 kts | 221° |
| 2026-05-06 17:27 | 45.50165 | 12.34189 | 21 ft | 7 kts | 221° |
| 2026-05-06 17:27 | 45.50142 | 12.34130 | 21 ft | 6 kts | 287° |
| 2026-05-06 17:28 | 45.50160 | 12.34098 | 21 ft | 2 kts | 315° |
| 2026-05-06 17:28 | 45.50172 | 12.34080 | 21 ft | 2 kts | 313° |
| 2026-05-06 17:28 | 45.50178 | 12.34071 | 23 ft | 0 kts | 312° |